| time (UTC) | temp F | wind direction | speed MPH | gust MPH | rain 1hr in | rain 24hr in | rain mn in | humidity % | barometer mb |
| 20260507150124 | 55 | 145 | 3.0 | 11.0 | 0.00 | 0.00 | 0.00 | 76 | 1019.9 |
| 20260507145122 | 55 | 116 | 1.0 | 5.0 | 0.00 | 0.00 | 0.00 | 78 | 1019.9 |
| 20260507144124 | 55 | 116 | 1.0 | 11.0 | 0.00 | 0.00 | 0.00 | 79 | 1019.9 |
| 20260507143124 | 54 | 135 | 2.0 | 8.0 | 0.00 | 0.00 | 0.00 | 79 | 1019.8 |
| 20260507142145 | 54 | 131 | 4.0 | 13.0 | 0.00 | 0.00 | 0.00 | 79 | 1019.9 |
| 20260507141124 | 54 | 127 | 3.0 | 8.0 | 0.00 | 0.00 | 0.00 | 80 | 1019.7 |
| 20260507140122 | 54 | 140 | 1.0 | 6.0 | 0.00 | 0.00 | 0.00 | 80 | 1019.8 |
| 20260507135143 | 53 | 150 | 2.0 | 8.0 | 0.00 | 0.00 | 0.00 | 81 | 1019.8 |
| 20260507134122 | 53 | 146 | 4.0 | 13.0 | 0.00 | 0.00 | 0.00 | 81 | 1019.6 |
| 20260507133122 | 53 | 147 | 3.0 | 11.0 | 0.00 | 0.00 | 0.00 | 82 | 1019.6 |
| 20260507132124 | 54 | 135 | 3.0 | 11.0 | 0.00 | 0.00 | 0.00 | 82 | 1019.7 |
| 20260507131122 | 54 | 126 | 3.0 | 10.0 | 0.00 | 0.00 | 0.00 | 82 | 1019.7 |
| 20260507130122 | 54 | 125 | 1.0 | 6.0 | 0.00 | 0.00 | 0.00 | 82 | 1019.7 |
| 20260507125124 | 54 | 126 | 2.0 | 8.0 | 0.00 | 0.00 | 0.00 | 82 | 1019.5 |
| 20260507124122 | 54 | 124 | 3.0 | 8.0 | 0.00 | 0.00 | 0.00 | 82 | 1019.5 |
| 20260507123148 | 54 | 130 | 3.0 | 10.0 | 0.00 | 0.00 | 0.00 | 82 | 1019.5 |
| 20260507123143 | 54 | 129 | 3.0 | 10.0 | 0.00 | 0.00 | 0.00 | 82 | 1019.5 |
| 20260507122123 | 54 | 136 | 4.0 | 13.0 | 0.00 | 0.00 | 0.00 | 83 | 1019.5 |
| 20260507121143 | 54 | 122 | 5.0 | 13.0 | 0.00 | 0.00 | 0.00 | 83 | 1019.7 |
| 20260507120124 | 54 | 124 | 5.0 | 13.0 | 0.00 | 0.00 | 0.00 | 83 | 1019.8 |
| 20260507115124 | 54 | 129 | 5.0 | 13.0 | 0.00 | 0.00 | 0.00 | 83 | 1019.9 |
| 20260507114124 | 54 | 124 | 4.0 | 11.0 | 0.00 | 0.00 | 0.00 | 84 | 1019.9 |
| 20260507113124 | 54 | 127 | 3.0 | 10.0 | 0.00 | 0.00 | 0.00 | 84 | 1019.8 |
| 20260507112122 | 54 | 129 | 4.0 | 11.0 | 0.00 | 0.00 | 0.00 | 84 | 1019.8 |
| 20260507111122 | 54 | 128 | 4.0 | 11.0 | 0.00 | 0.00 | 0.00 | 84 | 1019.9 |
| 20260507110149 | 54 | 127 | 4.0 | 10.0 | 0.00 | 0.00 | 0.00 | 84 | 1019.8 |
| 20260507110144 | 54 | 127 | 3.0 | 10.0 | 0.00 | 0.00 | 0.00 | 84 | 1019.9 |
| 20260507105122 | 54 | 124 | 3.0 | 10.0 | 0.00 | 0.00 | 0.00 | 84 | 1019.9 |
| 20260507104122 | 54 | 128 | 3.0 | 8.0 | 0.00 | 0.00 | 0.00 | 84 | 1019.8 |
| 20260507103122 | 54 | 126 | 4.0 | 11.0 | 0.00 | 0.00 | 0.00 | 84 | 1019.8 |
| 20260507102124 | 54 | 127 | 3.0 | 8.0 | 0.00 | 0.00 | 0.00 | 83 | 1019.7 |
| 20260507101122 | 54 | 124 | 3.0 | 11.0 | 0.00 | 0.00 | 0.00 | 83 | 1019.6 |
| 20260507100122 | 55 | 123 | 2.0 | 6.0 | 0.00 | 0.00 | 0.00 | 83 | 1019.7 |
| 20260507095124 | 54 | 128 | 3.0 | 8.0 | 0.00 | 0.00 | 0.00 | 83 | 1019.8 |
| 20260507094125 | 54 | 125 | 3.0 | 10.0 | 0.00 | 0.00 | 0.00 | 83 | 1019.8 |
| 20260507093122 | 55 | 128 | 3.0 | 10.0 | 0.00 | 0.00 | 0.00 | 83 | 1019.8 |
| 20260507092124 | 55 | 130 | 3.0 | 8.0 | 0.00 | 0.00 | 0.00 | 83 | 1019.8 |
| 20260507091122 | 55 | 126 | 2.0 | 6.0 | 0.00 | 0.00 | 0.00 | 82 | 1019.7 |
| 20260507090123 | 55 | 126 | 2.0 | 8.0 | 0.00 | 0.00 | 0.00 | 82 | 1019.7 |
| 20260507085122 | 55 | 120 | 1.0 | 6.0 | 0.00 | 0.00 | 0.00 | 82 | 1019.6 |
| 20260507084122 | 55 | 122 | 1.0 | 5.0 | 0.00 | 0.00 | 0.00 | 82 | 1019.6 |
| 20260507083122 | 55 | 124 | 3.0 | 8.0 | 0.00 | 0.00 | 0.00 | 82 | 1019.4 |
| 20260507082128 | 55 | 125 | 3.0 | 10.0 | 0.00 | 0.00 | 0.00 | 82 | 1019.4 |
| 20260507082123 | 55 | 126 | 3.0 | 10.0 | 0.00 | 0.00 | 0.00 | 82 | 1019.4 |
| 20260507081123 | 55 | 125 | 4.0 | 11.0 | 0.00 | 0.00 | 0.00 | 82 | 1019.4 |
| 20260507080124 | 55 | 127 | 4.0 | 11.0 | 0.00 | 0.00 | 0.00 | 82 | 1019.3 |
| 20260507075122 | 55 | 124 | 4.0 | 11.0 | 0.00 | 0.00 | 0.00 | 82 | 1019.3 |
| 20260507074124 | 55 | 124 | 3.0 | 8.0 | 0.00 | 0.00 | 0.00 | 82 | 1019.3 |
| 20260507073122 | 55 | 130 | 3.0 | 10.0 | 0.00 | 0.00 | 0.00 | 81 | 1019.2 |
| 20260507072124 | 56 | 125 | 3.0 | 8.0 | 0.00 | 0.00 | 0.00 | 81 | 1019.1 |
| 20260507071122 | 56 | 127 | 2.0 | 6.0 | 0.00 | 0.00 | 0.00 | 80 | 1019.1 |
| 20260507070124 | 56 | 126 | 1.0 | 5.0 | 0.00 | 0.00 | 0.00 | 81 | 1019.0 |
| 20260507065122 | 56 | 127 | 1.0 | 5.0 | 0.00 | 0.00 | 0.00 | 80 | 1019.0 |
| 20260507064124 | 56 | 130 | 2.0 | 6.0 | 0.00 | 0.00 | 0.00 | 80 | 1019.0 |
| 20260507063122 | 56 | 121 | 2.0 | 6.0 | 0.00 | 0.00 | 0.00 | 80 | 1019.0 |
| 20260507062145 | 56 | 107 | 1.0 | 6.0 | 0.00 | 0.00 | 0.00 | 79 | 1019.0 |
| 20260507061124 | 56 | 130 | 2.0 | 5.0 | 0.00 | 0.00 | 0.00 | 79 | 1019.0 |
| 20260507060145 | 56 | 148 | 2.0 | 5.0 | 0.00 | 0.00 | 0.00 | 79 | 1018.9 |
| 20260507055124 | 56 | 133 | 3.0 | 8.0 | 0.00 | 0.00 | 0.00 | 79 | 1018.9 |
| 20260507054122 | 56 | 126 | 3.0 | 10.0 | 0.00 | 0.00 | 0.00 | 80 | 1018.9 |
| 20260507053122 | 56 | 113 | 2.0 | 6.0 | 0.00 | 0.00 | 0.00 | 80 | 1018.9 |
| 20260507052124 | 56 | 123 | 3.0 | 10.0 | 0.00 | 0.00 | 0.00 | 79 | 1018.9 |
| 20260507051122 | 56 | 109 | 2.0 | 6.0 | 0.00 | 0.00 | 0.00 | 79 | 1018.9 |
| 20260507050122 | 56 | 110 | 2.0 | 6.0 | 0.00 | 0.00 | 0.00 | 78 | 1018.8 |
| 20260507045122 | 57 | 124 | 2.0 | 6.0 | 0.00 | 0.00 | 0.00 | 78 | 1018.8 |
| 20260507044143 | 57 | 128 | 3.0 | 8.0 | 0.00 | 0.00 | 0.00 | 78 | 1018.8 |
| 20260507043124 | 57 | 117 | 2.0 | 8.0 | 0.00 | 0.00 | 0.00 | 78 | 1018.8 |
| 20260507042124 | 57 | 123 | 2.0 | 6.0 | 0.00 | 0.00 | 0.00 | 78 | 1018.8 |
| 20260507041122 | 57 | 125 | 2.0 | 6.0 | 0.00 | 0.00 | 0.00 | 77 | 1018.7 |
| 20260507040146 | 57 | 111 | 1.0 | 5.0 | 0.00 | 0.00 | 0.00 | 77 | 1018.8 |
| 20260507035122 | 57 | 110 | 0.0 | 3.0 | 0.00 | 0.00 | 0.00 | 76 | 1018.7 |
| 20260507034123 | 57 | 129 | 1.0 | 5.0 | 0.00 | 0.00 | 0.00 | 75 | 1018.9 |
| 20260507033124 | 58 | 141 | 1.0 | 5.0 | 0.00 | 0.00 | 0.00 | 74 | 1018.7 |
| 20260507032122 | 58 | 145 | 1.0 | 6.0 | 0.00 | 0.00 | 0.00 | 74 | 1018.7 |
| 20260507031144 | 58 | 157 | 2.0 | 10.0 | 0.00 | 0.00 | 0.00 | 73 | 1018.8 |
| 20260507030122 | 58 | 163 | 1.0 | 6.0 | 0.00 | 0.00 | 0.00 | 73 | 1018.9 |
| 20260507025122 | 58 | 149 | 1.0 | 8.0 | 0.00 | 0.00 | 0.00 | 74 | 1018.9 |
| 20260507024122 | 58 | 150 | 1.0 | 6.0 | 0.00 | 0.00 | 0.00 | 73 | 1018.9 |
| 20260507023124 | 58 | 136 | 4.0 | 14.0 | 0.00 | 0.00 | 0.00 | 73 | 1018.7 |
| 20260507022124 | 58 | 141 | 4.0 | 13.0 | 0.00 | 0.00 | 0.00 | 73 | 1018.8 |
| 20260507021123 | 58 | 166 | 2.0 | 8.0 | 0.00 | 0.00 | 0.00 | 72 | 1018.7 |
| 20260507020145 | 58 | 167 | 1.0 | 8.0 | 0.00 | 0.00 | 0.00 | 72 | 1018.6 |
| 20260507015145 | 58 | 186 | 1.0 | 8.0 | 0.00 | 0.00 | 0.00 | 72 | 1018.6 |
| 20260507014143 | 58 | 158 | 2.0 | 10.0 | 0.00 | 0.00 | 0.00 | 72 | 1018.6 |
| 20260507013143 | 58 | 177 | 2.0 | 10.0 | 0.00 | 0.00 | 0.00 | 72 | 1018.8 |
| 20260507012122 | 58 | 170 | 1.0 | 8.0 | 0.00 | 0.00 | 0.00 | 73 | 1018.7 |
| 20260507011122 | 58 | 231 | 2.0 | 10.0 | 0.00 | 0.00 | 0.00 | 72 | 1018.7 |
| 20260507010124 | 59 | 206 | 1.0 | 8.0 | 0.00 | 0.00 | 0.00 | 72 | 1018.8 |
| 20260507005124 | 59 | 307 | 1.0 | 5.0 | 0.00 | 0.00 | 0.00 | 72 | 1018.8 |
| 20260507004124 | 59 | 91 | 0.0 | 3.0 | 0.00 | 0.00 | 0.00 | 72 | 1018.9 |
| 20260507003123 | 59 | 212 | 0.0 | 3.0 | 0.00 | 0.00 | 0.00 | 72 | 1018.7 |
| 20260507002122 | 59 | 142 | 1.0 | 6.0 | 0.00 | 0.00 | 0.00 | 71 | 1018.7 |
| 20260507001123 | 59 | 192 | 1.0 | 6.0 | 0.00 | 0.00 | 0.00 | 71 | 1018.7 |
| 20260507000122 | 59 | 162 | 1.0 | 10.0 | 0.00 | 0.00 | 0.00 | 70 | 1018.7 |
| 20260506235122 | 60 | 193 | 0.0 | 3.0 | 0.00 | 0.00 | 0.00 | 70 | 1018.8 |
| 20260506234122 | 60 | 186 | 0.0 | 2.0 | 0.00 | 0.00 | 0.00 | 71 | 1018.7 |
| 20260506233122 | 60 | 148 | 1.0 | 5.0 | 0.00 | 0.00 | 0.00 | 71 | 1018.6 |
| 20260506232122 | 60 | 150 | 3.0 | 10.0 | 0.00 | 0.00 | 0.00 | 71 | 1018.7 |
| 20260506231122 | 60 | 114 | 1.0 | 6.0 | 0.00 | 0.00 | 0.00 | 72 | 1018.6 |
| 20260506230122 | 59 | 152 | 2.0 | 6.0 | 0.00 | 0.00 | 0.00 | 70 | 1018.7 |
| 20260506225124 | 59 | 153 | 2.0 | 11.0 | 0.00 | 0.00 | 0.00 | 70 | 1018.8 |
| 20260506224122 | 59 | 128 | 3.0 | 11.0 | 0.00 | 0.00 | 0.00 | 74 | 1018.7 |
| 20260506223143 | 59 | 143 | 2.0 | 6.0 | 0.00 | 0.00 | 0.00 | 73 | 1018.8 |
| 20260506222143 | 59 | 124 | 2.0 | 8.0 | 0.00 | 0.00 | 0.00 | 74 | 1018.8 |
| 20260506221143 | 59 | 144 | 2.0 | 10.0 | 0.00 | 0.00 | 0.00 | 75 | 1018.9 |
| 20260506220122 | 59 | 166 | 0.0 | 6.0 | 0.00 | 0.00 | 0.00 | 75 | 1018.9 |
| 20260506215122 | 59 | 123 | 4.0 | 14.0 | 0.00 | 0.00 | 0.00 | 75 | 1018.9 |
| 20260506214122 | 59 | 141 | 3.0 | 14.0 | 0.00 | 0.00 | 0.00 | 75 | 1018.9 |
| 20260506213122 | 59 | 126 | 4.0 | 16.0 | 0.00 | 0.00 | 0.00 | 75 | 1019.0 |
| 20260506212122 | 59 | 131 | 4.0 | 13.0 | 0.00 | 0.00 | 0.00 | 76 | 1019.0 |
| 20260506211124 | 58 | 154 | 2.0 | 8.0 | 0.00 | 0.00 | 0.00 | 77 | 1019.1 |
| 20260506210122 | 58 | 84 | 3.0 | 11.0 | 0.00 | 0.00 | 0.00 | 78 | 1019.2 |
| 20260506205124 | 58 | 83 | 3.0 | 11.0 | 0.00 | 0.00 | 0.00 | 78 | 1019.2 |
| 20260506204122 | 58 | 111 | 2.0 | 11.0 | 0.00 | 0.00 | 0.00 | 78 | 1019.2 |
| 20260506203122 | 58 | 100 | 2.0 | 11.0 | 0.00 | 0.00 | 0.00 | 79 | 1019.2 |
| 20260506202145 | 58 | 111 | 3.0 | 11.0 | 0.00 | 0.00 | 0.00 | 79 | 1019.2 |
| 20260506201124 | 57 | 115 | 2.0 | 8.0 | 0.00 | 0.00 | 0.00 | 79 | 1019.2 |
| 20260506200123 | 57 | 121 | 2.0 | 11.0 | 0.00 | 0.00 | 0.00 | 80 | 1019.1 |
| 20260506195122 | 57 | 104 | 3.0 | 11.0 | 0.00 | 0.00 | 0.00 | 81 | 1019.1 |
| 20260506194124 | 56 | 110 | 2.0 | 8.0 | 0.00 | 0.00 | 0.00 | 81 | 1019.2 |
| 20260506193122 | 56 | 124 | 4.0 | 14.0 | 0.00 | 0.00 | 0.00 | 81 | 1019.3 |
| 20260506192122 | 56 | 120 | 2.0 | 13.0 | 0.00 | 0.00 | 0.00 | 81 | 1019.2 |
| 20260506191122 | 57 | 131 | 1.0 | 6.0 | 0.00 | 0.00 | 0.00 | 81 | 1019.2 |
| 20260506190122 | 57 | 127 | 2.0 | 6.0 | 0.00 | 0.00 | 0.00 | 81 | 1019.4 |
| 20260506185144 | 57 | 130 | 2.0 | 8.0 | 0.00 | 0.00 | 0.00 | 79 | 1019.2 |
| 20260506184122 | 56 | 151 | 3.0 | 11.0 | 0.00 | 0.00 | 0.00 | 80 | 1019.2 |
| 20260506183143 | 56 | 140 | 2.0 | 10.0 | 0.00 | 0.00 | 0.00 | 80 | 1019.3 |
| 20260506182122 | 56 | 178 | 1.0 | 6.0 | 0.00 | 0.00 | 0.00 | 80 | 1019.1 |
| 20260506181122 | 56 | 127 | 1.0 | 8.0 | 0.00 | 0.00 | 0.00 | 82 | 1019.0 |
| 20260506180145 | 56 | 117 | 2.0 | 6.0 | 0.00 | 0.00 | 0.00 | 82 | 1019.0 |
| 20260506175122 | 56 | 108 | 1.0 | 6.0 | 0.00 | 0.00 | 0.00 | 82 | 1019.0 |
| 20260506174122 | 56 | 74 | 1.0 | 5.0 | 0.00 | 0.00 | 0.00 | 82 | 1019.0 |
| 20260506173122 | 55 | 139 | 1.0 | 5.0 | 0.00 | 0.00 | 0.00 | 82 | 1019.0 |
| 20260506172124 | 55 | 140 | 3.0 | 11.0 | 0.00 | 0.00 | 0.00 | 81 | 1019.0 |
| 20260506171122 | 55 | 149 | 1.0 | 6.0 | 0.00 | 0.00 | 0.00 | 82 | 1019.0 |
| 20260506170122 | 55 | 154 | 1.0 | 8.0 | 0.00 | 0.00 | 0.00 | 82 | 1019.0 |
| 20260506165145 | 55 | 166 | 2.0 | 10.0 | 0.00 | 0.00 | 0.00 | 82 | 1019.0 |
| 20260506164122 | 55 | 133 | 4.0 | 13.0 | 0.00 | 0.00 | 0.00 | 82 | 1018.8 |
| 20260506163123 | 55 | 140 | 3.0 | 10.0 | 0.00 | 0.00 | 0.00 | 82 | 1018.7 |
| 20260506162122 | 55 | 169 | 1.0 | 8.0 | 0.00 | 0.00 | 0.00 | 82 | 1018.8 |
| 20260506161124 | 55 | 147 | 1.0 | 11.0 | 0.00 | 0.00 | 0.00 | 83 | 1018.8 |
| 20260506160122 | 55 | 133 | 3.0 | 8.0 | 0.00 | 0.00 | 0.00 | 82 | 1019.0 |
| 20260506155123 | 55 | 128 | 2.0 | 8.0 | 0.00 | 0.00 | 0.00 | 84 | 1018.8 |
| 20260506154124 | 55 | 150 | 2.0 | 10.0 | 0.00 | 0.00 | 0.00 | 84 | 1018.7 |
| 20260506153123 | 55 | 123 | 0.0 | 5.0 | 0.00 | 0.00 | 0.00 | 86 | 1018.7 |
| 20260506152123 | 55 | 131 | 1.0 | 6.0 | 0.00 | 0.00 | 0.00 | 85 | 1018.7 |
| 20260506151122 | 54 | 156 | 1.0 | 6.0 | 0.00 | 0.00 | 0.00 | 84 | 1018.7 |